Time;durP1;ratioP1;P1;durP2;ratioP2;P2;SDS_P1;SDS_P2;PMS_P1;PMS_P2;Temp;Humidity;BMP_temperature;BMP_pressure;BME280_temperature;BME280_humidity;BME280_pressure;Samples;Min_cycle;Max_cycle;Signal;HPM_P1;HPM_P2
2022/01/08 00:00:00;;;;;;;;;;;1.80;99.90;;;;;;5052909;28;20291;-72
2022/01/08 00:02:26;;;;;;;;;;;2.70;99.90;;;;;;5051881;28;19928;-73
2022/01/08 00:04:51;;;;;;;;;;;3.50;99.90;;;;;;5051782;28;19921;-73
2022/01/08 00:07:17;;;;;;;;;;;2.40;99.90;;;;;;5013087;28;19972;-73
2022/01/08 00:09:42;;;;;;;;;;;1.50;99.90;;;;;;5012338;28;20288;-73
2022/01/08 00:12:08;;;;;;;;;;;3.50;99.90;;;;;;5016038;28;19921;-72
2022/01/08 00:14:35;;;;;;;;;;;1.50;99.90;;;;;;5017049;28;19984;-73
2022/01/08 00:17:01;;;;;;;;;;;1.50;99.90;;;;;;5017047;28;19921;-74
2022/01/08 00:19:26;;;;;;;;;;;1.40;99.90;;;;;;5016944;28;20296;-74
2022/01/08 00:21:52;;;;;;;;;;;2.40;99.90;;;;;;5016751;28;20292;-73
2022/01/08 00:24:17;;;;;;;;;;;1.40;99.90;;;;;;5032419;28;19984;-72
2022/01/08 00:26:43;;;;;;;;;;;3.00;99.90;;;;;;5016974;28;19921;-72
2022/01/08 00:29:09;;;;;;;;;;;1.40;99.90;;;;;;5032170;28;19928;-72
2022/01/08 00:31:35;;;;;;;;;;;1.50;99.90;;;;;;5016752;28;19975;-72
2022/01/08 00:34:00;;;;;;;;;;;1.60;99.90;;;;;;5016607;28;19921;-72
2022/01/08 00:36:26;;;;;;;;;;;3.30;99.90;;;;;;5015660;28;20362;-72
2022/01/08 00:38:51;;;;;;;;;;;2.90;99.90;;;;;;5015585;28;19929;-72
2022/01/08 00:41:17;;;;;;;;;;;1.30;99.90;;;;;;5016807;28;19921;-72
2022/01/08 00:43:42;;;;;;;;;;;1.30;99.90;;;;;;5016665;28;20389;-73
2022/01/08 00:46:08;;;;;;;;;;;1.30;99.90;;;;;;5016690;28;20041;-73
2022/01/08 00:48:33;;;;;;;;;;;0.90;99.90;;;;;;5016454;28;19964;-73
2022/01/08 00:50:59;;;;;;;;;;;2.80;99.90;;;;;;5016535;28;19921;-73
2022/01/08 00:53:25;;;;;;;;;;;1.30;99.90;;;;;;5015283;28;19948;-73
2022/01/08 00:55:51;;;;;;;;;;;2.40;99.90;;;;;;5016459;28;20016;-73
2022/01/08 00:58:16;;;;;;;;;;;0.70;99.90;;;;;;5015444;28;20037;-72
2022/01/08 01:00:42;;;;;;;;;;;1.10;99.90;;;;;;5016367;28;20032;-73
2022/01/08 01:03:08;;;;;;;;;;;2.70;99.90;;;;;;5016165;28;19921;-72
2022/01/08 01:05:33;;;;;;;;;;;1.20;99.90;;;;;;5027285;28;19921;-77
2022/01/08 01:07:59;;;;;;;;;;;1.90;99.90;;;;;;5055746;28;19921;-72
2022/01/08 01:10:25;;;;;;;;;;;1.10;99.90;;;;;;5055851;28;19974;-74
2022/01/08 01:12:51;;;;;;;;;;;1.90;99.90;;;;;;5055867;28;19944;-73
2022/01/08 01:15:17;;;;;;;;;;;1.10;99.90;;;;;;5054475;28;19921;-75
2022/01/08 01:17:43;;;;;;;;;;;1.30;99.90;;;;;;5055644;28;19920;-72
2022/01/08 01:20:10;;;;;;;;;;;1.10;99.90;;;;;;5038001;28;20290;-72
2022/01/08 01:22:46;;;;;;;;;;;1.10;99.90;;;;;;5054701;28;20343;-72
2022/01/08 01:25:15;;;;;;;;;;;2.50;99.90;;;;;;5055607;28;19920;-72
2022/01/08 01:28:03;;;;;;;;;;;1.80;99.90;;;;;;5054700;28;19968;-74
2022/01/08 01:41:35;;;;;;;;;;;0.30;99.90;;;;;;5055098;28;20015;-74
2022/01/08 01:49:17;;;;;;;;;;;3.10;99.90;;;;;;5054964;28;19973;-72
2022/01/08 01:51:43;;;;;;;;;;;2.00;99.90;;;;;;5054074;28;20003;-72
2022/01/08 01:54:08;;;;;;;;;;;1.10;99.90;;;;;;5054680;28;20012;-72
2022/01/08 01:56:34;;;;;;;;;;;1.00;99.90;;;;;;5055074;28;19921;-72
2022/01/08 01:58:59;;;;;;;;;;;2.50;99.90;;;;;;5054976;28;20428;-73
2022/01/08 02:01:25;;;;;;;;;;;2.90;99.90;;;;;;5053845;28;19924;-75
2022/01/08 02:03:51;;;;;;;;;;;3.10;99.90;;;;;;5054776;28;19928;-73
2022/01/08 02:06:16;;;;;;;;;;;2.30;99.90;;;;;;5053449;28;19921;-74
2022/01/08 02:08:42;;;;;;;;;;;1.10;99.90;;;;;;5053693;28;19925;-72
2022/01/08 02:11:08;;;;;;;;;;;1.10;99.90;;;;;;5054449;28;20370;-73
2022/01/08 02:13:35;;;;;;;;;;;2.80;99.90;;;;;;5054608;28;20327;-72
2022/01/08 02:16:01;;;;;;;;;;;1.10;99.90;;;;;;5054582;28;20020;-73
2022/01/08 02:18:28;;;;;;;;;;;3.00;99.90;;;;;;5054472;28;19921;-72
2022/01/08 02:20:54;;;;;;;;;;;1.10;99.90;;;;;;5054457;28;19966;-72
2022/01/08 02:23:19;;;;;;;;;;;1.10;99.90;;;;;;5054375;28;19928;-74
2022/01/08 02:25:45;;;;;;;;;;;1.10;99.90;;;;;;5054211;28;19924;-73
2022/01/08 02:28:11;;;;;;;;;;;1.20;99.90;;;;;;5054473;28;20291;-72
2022/01/08 02:30:36;;;;;;;;;;;2.20;99.90;;;;;;5054327;28;19921;-76
2022/01/08 02:33:02;;;;;;;;;;;2.60;99.90;;;;;;5054093;28;19978;-76
2022/01/08 02:35:28;;;;;;;;;;;1.20;99.90;;;;;;5053021;28;19928;-73
2022/01/08 02:37:54;;;;;;;;;;;1.20;99.90;;;;;;5053041;28;19966;-73
2022/01/08 02:40:20;;;;;;;;;;;1.50;99.90;;;;;;5054019;28;19956;-75
2022/01/08 02:42:59;;;;;;;;;;;1.70;99.90;;;;;;5052951;28;19921;-72
2022/01/08 02:45:24;;;;;;;;;;;1.30;99.90;;;;;;5054076;28;19921;-75
2022/01/08 02:47:52;;;;;;;;;;;1.30;99.90;;;;;;5053061;28;19927;-75
2022/01/08 02:50:17;;;;;;;;;;;2.10;99.90;;;;;;5053965;28;20027;-75
2022/01/08 02:52:44;;;;;;;;;;;1.30;99.90;;;;;;5053941;28;20380;-73
2022/01/08 02:55:09;;;;;;;;;;;3.20;99.90;;;;;;5053751;28;19920;-72
2022/01/08 02:57:35;;;;;;;;;;;1.20;99.90;;;;;;5054028;28;19927;-73
2022/01/08 03:00:01;;;;;;;;;;;1.20;99.90;;;;;;5069330;28;19994;-72
2022/01/08 03:02:26;;;;;;;;;;;1.20;99.90;;;;;;5053525;28;20019;-74
2022/01/08 03:04:54;;;;;;;;;;;1.30;99.90;;;;;;5053759;28;19921;-72
2022/01/08 03:07:19;;;;;;;;;;;1.20;99.90;;;;;;5053426;28;19987;-72
2022/01/08 03:09:53;;;;;;;;;;;1.20;99.90;;;;;;5053612;28;20015;-73
2022/01/08 03:12:19;;;;;;;;;;;2.30;99.90;;;;;;5054034;28;20418;-73
2022/01/08 03:14:44;;;;;;;;;;;0.90;99.90;;;;;;5053642;28;19967;-73
2022/01/08 03:17:10;;;;;;;;;;;1.40;99.90;;;;;;5052781;28;19927;-72
2022/01/08 03:19:37;;;;;;;;;;;1.50;99.90;;;;;;5053559;28;20276;-74
2022/01/08 03:22:04;;;;;;;;;;;1.10;99.90;;;;;;5052360;28;19971;-75
2022/01/08 03:24:30;;;;;;;;;;;1.60;99.90;;;;;;5052225;28;19928;-74
2022/01/08 03:26:56;;;;;;;;;;;2.60;99.90;;;;;;5052640;28;19928;-74
2022/01/08 03:29:21;;;;;;;;;;;2.50;99.90;;;;;;5053832;28;19921;-73
2022/01/08 03:31:47;;;;;;;;;;;1.10;99.90;;;;;;5053551;28;19920;-72
2022/01/08 03:34:13;;;;;;;;;;;1.90;99.90;;;;;;5053307;28;19925;-72
2022/01/08 03:36:38;;;;;;;;;;;1.10;99.90;;;;;;5053442;28;20355;-73
2022/01/08 03:39:04;;;;;;;;;;;1.10;99.90;;;;;;5053262;28;19927;-72
2022/01/08 03:41:30;;;;;;;;;;;1.10;99.90;;;;;;5053563;28;20007;-75
2022/01/08 03:43:56;;;;;;;;;;;1.10;99.90;;;;;;5053471;28;20403;-76
2022/01/08 03:46:23;;;;;;;;;;;1.10;99.90;;;;;;5055897;28;20268;-74
2022/01/08 03:51:26;;;;;;;;;;;1.10;99.90;;;;;;5057218;28;19921;-75
2022/01/08 03:53:51;;;;;;;;;;;2.10;99.90;;;;;;5057205;28;19928;-73
2022/01/08 03:56:17;;;;;;;;;;;1.10;99.90;;;;;;5057059;28;20280;-75
2022/01/08 03:58:43;;;;;;;;;;;0.60;99.90;;;;;;5057356;28;19921;-73
2022/01/08 04:01:09;;;;;;;;;;;1.00;99.90;;;;;;5056982;28;19928;-75
2022/01/08 04:03:34;;;;;;;;;;;1.00;99.90;;;;;;5057025;28;19921;-76
2022/01/08 04:06:00;;;;;;;;;;;1.00;99.90;;;;;;5055789;28;20365;-77
2022/01/08 04:08:25;;;;;;;;;;;1.00;99.90;;;;;;5056876;28;20388;-72
2022/01/08 04:10:51;;;;;;;;;;;1.00;99.90;;;;;;5055535;28;19921;-72
2022/01/08 04:13:22;;;;;;;;;;;1.20;99.90;;;;;;5055818;28;20388;-72
2022/01/08 04:15:50;;;;;;;;;;;1.80;99.90;;;;;;5056787;28;19928;-73
2022/01/08 04:18:16;;;;;;;;;;;2.70;99.90;;;;;;5056732;28;20374;-72
2022/01/08 04:21:13;;;;;;;;;;;1.00;99.90;;;;;;5055577;28;19920;-73
2022/01/08 04:23:28;;;;;;;;;;;2.60;99.90;;;;;;5056255;28;19921;-72
2022/01/08 04:25:53;;;;;;;;;;;2.90;99.90;;;;;;5056797;28;19920;-76
2022/01/08 04:28:19;;;;;;;;;;;2.10;99.90;;;;;;5056676;28;19928;-73
2022/01/08 04:30:45;;;;;;;;;;;0.90;99.90;;;;;;5056709;28;19931;-73
2022/01/08 04:33:11;;;;;;;;;;;0.90;99.90;;;;;;5056440;28;19943;-73
2022/01/08 04:35:37;;;;;;;;;;;2.60;99.90;;;;;;5056462;28;20374;-73
2022/01/08 04:38:02;;;;;;;;;;;2.10;99.90;;;;;;5055295;28;19925;-76
2022/01/08 04:40:28;;;;;;;;;;;2.30;99.90;;;;;;5056550;28;19927;-72
2022/01/08 04:42:54;;;;;;;;;;;2.30;99.90;;;;;;5056429;28;20003;-75
2022/01/08 04:45:21;;;;;;;;;;;0.80;99.90;;;;;;5055372;28;19927;-73
2022/01/08 04:47:47;;;;;;;;;;;0.80;99.90;;;;;;5071489;28;19927;-72
2022/01/08 04:50:13;;;;;;;;;;;0.80;99.90;;;;;;5056132;28;19925;-72
2022/01/08 04:52:41;;;;;;;;;;;0.80;99.90;;;;;;5055111;28;19927;-76
2022/01/08 04:55:07;;;;;;;;;;;0.80;99.90;;;;;;5056202;28;19989;-75
2022/01/08 04:57:33;;;;;;;;;;;0.80;99.90;;;;;;5053992;28;20007;-73
2022/01/08 04:59:58;;;;;;;;;;;1.00;99.90;;;;;;5055979;28;19974;-75
2022/01/08 05:02:24;;;;;;;;;;;1.40;99.90;;;;;;5055029;28;19927;-72
2022/01/08 05:04:49;;;;;;;;;;;0.80;99.90;;;;;;5055780;28;19920;-75
2022/01/08 05:07:15;;;;;;;;;;;1.10;99.90;;;;;;5054380;28;19929;-73
2022/01/08 05:09:40;;;;;;;;;;;0.80;99.90;;;;;;5055715;28;20400;-74
2022/01/08 05:12:06;;;;;;;;;;;0.80;99.90;;;;;;5055918;28;19921;-74
2022/01/08 05:14:32;;;;;;;;;;;0.80;99.90;;;;;;5055652;28;19920;-74
2022/01/08 05:17:01;;;;;;;;;;;-0.40;99.90;;;;;;5055687;28;19973;-73
2022/01/08 05:22:39;;;;;;;;;;;0.80;99.90;;;;;;5033509;28;19921;-72
2022/01/08 05:25:05;;;;;;;;;;;2.50;99.90;;;;;;5033330;28;19921;-75
2022/01/08 05:27:30;;;;;;;;;;;0.90;99.90;;;;;;5017163;28;20024;-73
2022/01/08 05:29:56;;;;;;;;;;;0.80;99.90;;;;;;5033161;28;19921;-72
2022/01/08 05:32:21;;;;;;;;;;;0.80;99.90;;;;;;5016757;28;20024;-75
2022/01/08 05:34:48;;;;;;;;;;;1.60;99.90;;;;;;5033052;28;19921;-75
2022/01/08 05:37:14;;;;;;;;;;;1.80;99.90;;;;;;5033175;28;20376;-74
2022/01/08 05:39:40;;;;;;;;;;;1.20;99.90;;;;;;5033080;28;20016;-72
2022/01/08 05:42:05;;;;;;;;;;;0.90;99.90;;;;;;5033168;28;19925;-72
2022/01/08 05:44:31;;;;;;;;;;;0.90;99.90;;;;;;5016754;28;19971;-73
2022/01/08 05:46:57;;;;;;;;;;;-0.80;99.90;;;;;;5033003;28;19991;-74
2022/01/08 05:49:22;;;;;;;;;;;2.80;99.90;;;;;;5032815;28;19927;-73
2022/01/08 05:51:48;;;;;;;;;;;2.10;99.90;;;;;;5032880;28;19925;-73
2022/01/08 05:54:13;;;;;;;;;;;0.90;99.90;;;;;;5032777;28;19955;-72
2022/01/08 05:56:39;;;;;;;;;;;0.90;99.90;;;;;;5032856;28;20305;-72
2022/01/08 05:59:05;;;;;;;;;;;0.90;99.90;;;;;;5051797;28;20286;-76
2022/01/08 06:01:32;;;;;;;;;;;1.00;99.90;;;;;;5055034;28;19925;-75
2022/01/08 06:03:57;;;;;;;;;;;0.90;99.90;;;;;;5054643;28;19928;-72
2022/01/08 06:06:23;;;;;;;;;;;0.90;99.90;;;;;;5054662;28;20304;-73
2022/01/08 06:08:48;;;;;;;;;;;2.60;99.90;;;;;;5054497;28;20402;-73
2022/01/08 06:11:14;;;;;;;;;;;0.90;99.90;;;;;;5054934;28;20083;-75
2022/01/08 06:13:39;;;;;;;;;;;2.10;99.90;;;;;;5054517;28;19920;-73
2022/01/08 06:16:05;;;;;;;;;;;0.80;99.90;;;;;;5054498;28;19931;-76
2022/01/08 06:18:31;;;;;;;;;;;0.90;99.90;;;;;;5054385;28;20379;-74
2022/01/08 06:20:59;;;;;;;;;;;0.90;99.90;;;;;;5054337;28;19924;-74
2022/01/08 06:23:25;;;;;;;;;;;2.30;99.90;;;;;;5054297;28;20444;-72
2022/01/08 06:25:51;;;;;;;;;;;2.60;99.90;;;;;;5054507;28;20257;-73
2022/01/08 06:28:16;;;;;;;;;;;1.40;99.90;;;;;;5054412;28;19927;-73
2022/01/08 06:30:42;;;;;;;;;;;1.50;99.90;;;;;;5054435;28;19987;-73
2022/01/08 06:33:07;;;;;;;;;;;2.30;99.90;;;;;;5054038;28;19921;-73
2022/01/08 06:35:33;;;;;;;;;;;0.90;99.90;;;;;;5054091;28;19921;-74
2022/01/08 06:37:58;;;;;;;;;;;0.90;99.90;;;;;;5054045;28;20329;-74
2022/01/08 06:40:24;;;;;;;;;;;0.90;99.90;;;;;;5054228;28;19921;-72
2022/01/08 06:42:50;;;;;;;;;;;2.10;99.90;;;;;;5054220;28;19921;-72
2022/01/08 06:45:15;;;;;;;;;;;0.90;99.90;;;;;;5054074;28;19924;-74
2022/01/08 06:47:45;;;;;;;;;;;1.60;99.90;;;;;;5053990;28;20013;-72
2022/01/08 06:50:11;;;;;;;;;;;1.10;99.90;;;;;;5052514;28;19927;-73
2022/01/08 06:52:37;;;;;;;;;;;1.20;99.90;;;;;;5052591;28;19920;-72
2022/01/08 06:55:03;;;;;;;;;;;0.90;99.90;;;;;;5053954;28;19928;-73
2022/01/08 06:57:28;;;;;;;;;;;0.90;99.90;;;;;;5054024;28;19921;-73
2022/01/08 06:59:54;;;;;;;;;;;0.30;99.90;;;;;;5069109;28;20007;-72
2022/01/08 07:02:19;;;;;;;;;;;1.10;99.90;;;;;;5053781;28;19920;-73
2022/01/08 07:04:45;;;;;;;;;;;0.90;99.90;;;;;;5053707;28;19979;-74
2022/01/08 07:07:11;;;;;;;;;;;0.90;99.90;;;;;;5053898;28;19960;-72
2022/01/08 07:09:36;;;;;;;;;;;0.80;99.90;;;;;;5053833;28;19921;-74
2022/01/08 07:12:02;;;;;;;;;;;1.40;99.90;;;;;;5036342;28;20296;-72
2022/01/08 07:14:28;;;;;;;;;;;0.80;99.90;;;;;;5052392;28;20363;-73
2022/01/08 07:16:54;;;;;;;;;;;0.20;99.90;;;;;;5053640;28;19968;-73
2022/01/08 07:19:20;;;;;;;;;;;0.90;99.90;;;;;;5053460;28;19982;-73
2022/01/08 07:21:45;;;;;;;;;;;2.10;99.90;;;;;;5052901;28;20388;-73
2022/01/08 07:24:11;;;;;;;;;;;0.80;99.90;;;;;;5053680;28;19920;-72
2022/01/08 07:26:36;;;;;;;;;;;2.70;99.90;;;;;;5052500;28;19974;-72
2022/01/08 07:29:02;;;;;;;;;;;0.40;99.90;;;;;;5053629;28;20009;-74
2022/01/08 07:31:28;;;;;;;;;;;1.40;99.90;;;;;;5053448;28;20291;-75
2022/01/08 07:33:53;;;;;;;;;;;0.80;99.90;;;;;;5053445;28;20268;-74
2022/01/08 07:36:20;;;;;;;;;;;0.80;99.90;;;;;;5052156;28;19921;-75
2022/01/08 07:38:49;;;;;;;;;;;0.70;99.90;;;;;;5053278;28;19979;-73
2022/01/08 07:41:14;;;;;;;;;;;0.80;99.90;;;;;;5052611;28;19927;-74
2022/01/08 07:43:40;;;;;;;;;;;2.80;99.90;;;;;;5053454;28;19921;-72
2022/01/08 07:46:06;;;;;;;;;;;1.90;99.90;;;;;;5053398;28;19978;-73
2022/01/08 07:48:31;;;;;;;;;;;2.40;99.90;;;;;;5053268;28;19921;-73
2022/01/08 07:50:58;;;;;;;;;;;2.60;99.90;;;;;;5051974;28;20027;-74
2022/01/08 07:53:24;;;;;;;;;;;1.10;99.90;;;;;;5052026;28;19920;-73
2022/01/08 07:55:49;;;;;;;;;;;2.00;99.90;;;;;;5053380;28;19928;-72
2022/01/08 07:58:20;;;;;;;;;;;2.60;99.90;;;;;;5052173;28;20411;-74
2022/01/08 08:00:46;;;;;;;;;;;1.90;99.90;;;;;;5053339;28;20256;-75
2022/01/08 08:03:24;;;;;;;;;;;1.70;99.90;;;;;;5052709;28;19928;-75
2022/01/08 08:05:50;;;;;;;;;;;0.70;99.90;;;;;;5051621;28;19943;-74
2022/01/08 08:08:16;;;;;;;;;;;0.70;99.90;;;;;;5053081;28;19924;-73
2022/01/08 08:10:42;;;;;;;;;;;0.70;99.90;;;;;;5053313;28;19943;-72
2022/01/08 08:13:08;;;;;;;;;;;0.80;99.90;;;;;;5053138;28;20355;-75
2022/01/08 08:15:33;;;;;;;;;;;-0.50;99.90;;;;;;5052881;28;20016;-72
2022/01/08 08:17:59;;;;;;;;;;;0.70;99.90;;;;;;5052082;28;19978;-75
2022/01/08 08:20:24;;;;;;;;;;;0.80;99.90;;;;;;5052870;28;19921;-73
2022/01/08 08:22:50;;;;;;;;;;;1.90;99.90;;;;;;5052847;28;19921;-73
2022/01/08 08:25:15;;;;;;;;;;;2.10;99.90;;;;;;5053173;28;19924;-72
2022/01/08 08:27:41;;;;;;;;;;;1.50;99.90;;;;;;5053031;28;19928;-72
2022/01/08 08:30:07;;;;;;;;;;;0.80;99.90;;;;;;5053002;28;20362;-72
2022/01/08 08:32:33;;;;;;;;;;;0.90;99.90;;;;;;5055384;28;19925;-72
2022/01/08 08:34:58;;;;;;;;;;;0.90;99.90;;;;;;5056239;28;20020;-72
2022/01/08 08:37:24;;;;;;;;;;;0.80;99.90;;;;;;5055327;28;20300;-72
2022/01/08 08:39:50;;;;;;;;;;;2.70;99.90;;;;;;5056464;28;19982;-72
2022/01/08 08:42:15;;;;;;;;;;;0.40;99.90;;;;;;5056432;28;19928;-75
2022/01/08 08:44:41;;;;;;;;;;;2.30;99.90;;;;;;5056574;28;19971;-72
2022/01/08 08:47:06;;;;;;;;;;;0.90;99.90;;;;;;5071614;28;20019;-71
2022/01/08 08:49:32;;;;;;;;;;;1.00;99.90;;;;;;5056100;28;19979;-72
2022/01/08 08:51:58;;;;;;;;;;;2.20;99.90;;;;;;5055957;28;19921;-73
2022/01/08 08:54:24;;;;;;;;;;;1.00;99.90;;;;;;5056285;28;19943;-74
2022/01/08 08:56:49;;;;;;;;;;;1.80;99.90;;;;;;5055861;28;19920;-72
2022/01/08 08:59:15;;;;;;;;;;;1.00;99.90;;;;;;5056096;28;19979;-72
2022/01/08 09:01:40;;;;;;;;;;;2.20;99.90;;;;;;5056045;28;19927;-73
2022/01/08 09:04:06;;;;;;;;;;;1.10;99.90;;;;;;5055876;28;19964;-74
2022/01/08 09:06:32;;;;;;;;;;;1.20;99.90;;;;;;5055703;28;19921;-72
2022/01/08 09:08:58;;;;;;;;;;;1.20;99.90;;;;;;5054703;28;20260;-72
2022/01/08 09:11:23;;;;;;;;;;;-0.40;99.90;;;;;;5055781;28;20033;-73
2022/01/08 09:13:49;;;;;;;;;;;3.20;99.90;;;;;;5055827;28;19920;-72
2022/01/08 09:16:15;;;;;;;;;;;2.60;99.90;;;;;;5055675;28;20368;-74
2022/01/08 09:18:46;;;;;;;;;;;1.40;99.90;;;;;;5055642;28;20368;-73
2022/01/08 09:21:12;;;;;;;;;;;1.40;99.90;;;;;;5055522;28;19920;-73
2022/01/08 09:23:38;;;;;;;;;;;2.50;99.90;;;;;;5055440;28;20287;-75
2022/01/08 09:26:04;;;;;;;;;;;2.10;99.90;;;;;;5055656;28;19925;-73
2022/01/08 09:28:30;;;;;;;;;;;2.70;99.90;;;;;;5055453;28;20016;-74
2022/01/08 09:30:56;;;;;;;;;;;1.60;99.90;;;;;;5054378;28;20018;-74
2022/01/08 09:33:22;;;;;;;;;;;1.40;99.90;;;;;;5055369;28;19974;-73
2022/01/08 09:35:47;;;;;;;;;;;2.90;99.90;;;;;;5053961;28;19925;-73
2022/01/08 09:38:13;;;;;;;;;;;1.50;99.90;;;;;;5055338;28;19921;-75
2022/01/08 09:40:39;;;;;;;;;;;1.50;99.90;;;;;;5054213;28;19968;-73
2022/01/08 09:43:04;;;;;;;;;;;1.50;99.90;;;;;;5054705;28;19974;-74
2022/01/08 09:45:30;;;;;;;;;;;2.20;99.90;;;;;;5055323;28;19943;-73
2022/01/08 09:47:56;;;;;;;;;;;1.60;99.90;;;;;;5054212;28;19967;-75
2022/01/08 09:50:22;;;;;;;;;;;2.40;99.90;;;;;;5055018;28;19921;-74
2022/01/08 09:52:47;;;;;;;;;;;2.30;99.90;;;;;;5054028;28;19928;-73
2022/01/08 09:55:13;;;;;;;;;;;3.00;99.90;;;;;;5054799;28;19920;-74
2022/01/08 09:57:39;;;;;;;;;;;3.30;99.90;;;;;;5053947;28;19920;-72
2022/01/08 10:00:12;;;;;;;;;;;2.10;99.90;;;;;;5054713;28;19971;-72
2022/01/08 10:02:38;;;;;;;;;;;1.70;99.90;;;;;;5053784;28;19920;-73
2022/01/08 10:05:21;;;;;;;;;;;3.00;99.90;;;;;;5051001;28;20326;-73
2022/01/08 10:08:00;;;;;;;;;;;1.70;99.90;;;;;;5053107;28;19928;-74
2022/01/08 10:10:27;;;;;;;;;;;1.70;99.90;;;;;;5054688;28;19925;-74
2022/01/08 10:12:59;;;;;;;;;;;0.60;99.90;;;;;;5054619;28;19920;-77
2022/01/08 10:18:08;;;;;;;;;;;3.50;99.90;;;;;;5053080;28;19927;-73
2022/01/08 10:20:38;;;;;;;;;;;3.30;99.90;;;;;;5054294;28;20291;-73
2022/01/08 10:23:16;;;;;;;;;;;1.90;99.90;;;;;;5054279;28;19921;-74
2022/01/08 10:25:53;;;;;;;;;;;1.90;99.90;;;;;;5054430;28;19920;-74
2022/01/08 10:28:30;;;;;;;;;;;2.00;99.90;;;;;;5054082;28;20383;-75
2022/01/08 10:31:05;;;;;;;;;;;3.50;99.90;;;;;;5054198;28;20426;-74
2022/01/08 10:33:31;;;;;;;;;;;2.00;99.90;;;;;;5054366;28;19921;-73
2022/01/08 10:35:56;;;;;;;;;;;3.10;99.90;;;;;;5054285;28;19924;-73
2022/01/08 10:38:26;;;;;;;;;;;3.10;99.90;;;;;;5054186;28;20303;-73
2022/01/08 10:40:51;;;;;;;;;;;2.10;99.90;;;;;;5054085;28;20387;-74
2022/01/08 10:43:21;;;;;;;;;;;2.10;99.90;;;;;;5053958;28;19924;-73
2022/01/08 10:45:47;;;;;;;;;;;2.10;99.90;;;;;;5054108;28;19921;-73
2022/01/08 10:48:13;;;;;;;;;;;3.80;99.90;;;;;;5054120;28;19925;-73
2022/01/08 10:50:38;;;;;;;;;;;2.10;99.90;;;;;;5054016;28;19928;-73
2022/01/08 10:53:04;;;;;;;;;;;2.10;99.90;;;;;;5053821;28;19921;-73
2022/01/08 10:55:30;;;;;;;;;;;3.60;99.90;;;;;;5052883;28;19921;-72
2022/01/08 10:57:56;;;;;;;;;;;3.30;99.90;;;;;;5052519;28;20006;-73
2022/01/08 11:00:28;;;;;;;;;;;2.20;99.90;;;;;;5053721;28;20368;-72
2022/01/08 11:02:54;;;;;;;;;;;2.20;99.90;;;;;;5053897;28;19921;-74
2022/01/08 11:05:20;;;;;;;;;;;3.80;99.90;;;;;;5053573;28;19928;-74
2022/01/08 11:07:46;;;;;;;;;;;2.20;99.90;;;;;;5052931;28;19975;-73
2022/01/08 11:10:18;;;;;;;;;;;2.20;99.90;;;;;;5053371;28;20380;-73
2022/01/08 11:12:47;;;;;;;;;;;2.20;99.90;;;;;;5052171;28;19921;-73
2022/01/08 11:17:47;;;;;;;;;;;2.20;99.90;;;;;;5053455;28;19921;-75
2022/01/08 11:20:13;;;;;;;;;;;2.30;99.90;;;;;;5053363;28;19932;-73
2022/01/08 11:22:42;;;;;;;;;;;2.30;99.90;;;;;;5053326;28;19927;-73
2022/01/08 11:25:11;;;;;;;;;;;2.30;99.90;;;;;;5052298;28;20376;-73
2022/01/08 11:27:59;;;;;;;;;;;2.30;99.90;;;;;;5052173;28;20007;-75
2022/01/08 11:30:26;;;;;;;;;;;2.30;99.90;;;;;;5053222;28;20387;-74
2022/01/08 11:32:56;;;;;;;;;;;2.30;99.90;;;;;;5052431;28;19920;-75
2022/01/08 11:35:24;;;;;;;;;;;2.30;99.90;;;;;;5052044;28;19969;-73
2022/01/08 11:37:51;;;;;;;;;;;2.40;99.90;;;;;;5053131;28;20328;-75
2022/01/08 11:40:18;;;;;;;;;;;3.80;99.90;;;;;;5053315;28;19990;-75
2022/01/08 11:42:44;;;;;;;;;;;2.30;99.90;;;;;;5053357;28;19921;-74
2022/01/08 11:45:13;;;;;;;;;;;2.40;99.90;;;;;;5053254;28;20387;-72
2022/01/08 11:47:46;;;;;;;;;;;2.40;99.90;;;;;;5052259;28;19928;-73
2022/01/08 11:50:13;;;;;;;;;;;2.40;99.90;;;;;;5053055;28;20018;-74
2022/01/08 11:52:40;;;;;;;;;;;2.40;99.90;;;;;;5052992;28;19921;-73
2022/01/08 11:55:06;;;;;;;;;;;2.50;99.90;;;;;;5053099;28;19920;-74
2022/01/08 11:57:32;;;;;;;;;;;2.50;99.90;;;;;;5052089;28;19943;-72
2022/01/08 12:00:02;;;;;;;;;;;4.20;99.90;;;;;;5051762;28;19960;-73
2022/01/08 12:02:33;;;;;;;;;;;4.00;99.90;;;;;;5051842;28;19920;-73
2022/01/08 12:04:59;;;;;;;;;;;2.70;99.90;;;;;;5052806;28;19967;-74
2022/01/08 12:07:25;;;;;;;;;;;2.90;99.90;;;;;;5055016;28;20000;-73
2022/01/08 12:10:28;;;;;;;;;;;2.80;99.90;;;;;;5056820;28;19931;-73
2022/01/08 12:12:57;;;;;;;;;;;2.80;99.90;;;;;;5015121;28;20020;-75
2022/01/08 12:15:52;;;;;;;;;;;4.20;99.90;;;;;;5014782;28;19928;-73
2022/01/08 12:18:20;;;;;;;;;;;3.00;99.90;;;;;;4956468;29;20281;-73
2022/01/08 12:20:50;;;;;;;;;;;4.10;99.90;;;;;;4956015;29;20313;-73
2022/01/08 12:23:26;;;;;;;;;;;3.00;99.90;;;;;;4956296;29;19981;-75
2022/01/08 12:25:52;;;;;;;;;;;3.00;99.90;;;;;;4956496;29;20026;-74
2022/01/08 12:28:38;;;;;;;;;;;3.00;99.90;;;;;;4956140;29;19923;-73
2022/01/08 12:31:22;;;;;;;;;;;3.00;99.90;;;;;;4956142;29;20385;-75
2022/01/08 12:34:06;;;;;;;;;;;3.00;99.90;;;;;;4956269;29;19922;-75
2022/01/08 12:36:33;;;;;;;;;;;3.00;99.90;;;;;;4955959;29;19929;-72
2022/01/08 12:39:03;;;;;;;;;;;3.20;99.90;;;;;;4956063;29;19922;-73
2022/01/08 12:41:29;;;;;;;;;;;3.00;99.90;;;;;;4956056;29;19923;-73
2022/01/08 12:43:54;;;;;;;;;;;3.00;99.90;;;;;;4956092;29;19929;-73
2022/01/08 12:46:24;;;;;;;;;;;3.00;99.90;;;;;;4956020;29;19929;-74
2022/01/08 12:49:10;;;;;;;;;;;3.00;99.90;;;;;;4972124;28;20379;-71
2022/01/08 12:51:48;;;;;;;;;;;3.00;99.90;;;;;;4993818;28;19932;-73
2022/01/08 12:54:16;;;;;;;;;;;3.00;99.90;;;;;;5006892;28;20030;-73
2022/01/08 12:56:51;;;;;;;;;;;4.10;99.90;;;;;;5038322;28;19921;-75
2022/01/08 12:59:18;;;;;;;;;;;3.00;99.90;;;;;;5036073;28;19920;-74
2022/01/08 13:01:49;;;;;;;;;;;4.20;99.90;;;;;;5035936;28;19924;-74
2022/01/08 13:04:17;;;;;;;;;;;3.00;99.90;;;;;;5035796;28;20016;-77
2022/01/08 13:06:44;;;;;;;;;;;3.10;99.90;;;;;;5035659;28;19928;-74
2022/01/08 13:09:10;;;;;;;;;;;3.00;99.90;;;;;;5035867;28;20012;-73
2022/01/08 13:11:38;;;;;;;;;;;4.70;99.90;;;;;;5035831;28;19972;-75
2022/01/08 13:14:05;;;;;;;;;;;3.00;99.90;;;;;;5035870;28;19928;-75
2022/01/08 13:16:31;;;;;;;;;;;3.00;99.90;;;;;;5035599;28;19921;-73
2022/01/08 13:19:11;;;;;;;;;;;3.00;99.90;;;;;;5034515;28;20291;-73
2022/01/08 13:21:39;;;;;;;;;;;2.80;99.90;;;;;;5035543;28;19975;-73
2022/01/08 13:24:19;;;;;;;;;;;4.00;99.90;;;;;;5034437;28;20438;-74
2022/01/08 13:26:52;;;;;;;;;;;3.00;99.90;;;;;;5035487;28;20365;-72
2022/01/08 13:29:50;;;;;;;;;;;3.00;99.90;;;;;;5035428;28;19921;-75
2022/01/08 13:32:19;;;;;;;;;;;3.00;99.90;;;;;;4997244;28;19936;-76
2022/01/08 13:34:46;;;;;;;;;;;3.00;99.90;;;;;;5013340;28;19921;-72
2022/01/08 13:37:16;;;;;;;;;;;4.30;99.90;;;;;;5013503;28;19925;-74
2022/01/08 13:39:45;;;;;;;;;;;3.00;99.90;;;;;;5013353;28;19928;-74
2022/01/08 13:42:15;;;;;;;;;;;3.00;99.90;;;;;;5013345;28;19925;-72
2022/01/08 13:44:43;;;;;;;;;;;3.00;99.90;;;;;;5013365;28;20021;-73
2022/01/08 13:47:38;;;;;;;;;;;3.00;99.90;;;;;;4997051;28;19972;-73
2022/01/08 13:50:08;;;;;;;;;;;3.00;99.90;;;;;;5004510;28;19928;-73
2022/01/08 13:52:38;;;;;;;;;;;3.00;99.90;;;;;;5011434;28;19922;-73
2022/01/08 13:55:11;;;;;;;;;;;3.00;99.90;;;;;;4996731;28;19927;-75
2022/01/08 13:57:37;;;;;;;;;;;2.90;99.90;;;;;;5012908;28;19921;-73
2022/01/08 14:00:14;;;;;;;;;;;2.90;99.90;;;;;;5012943;28;19927;-74
2022/01/08 14:02:41;;;;;;;;;;;2.90;99.90;;;;;;5011396;28;19925;-73
2022/01/08 14:05:09;;;;;;;;;;;2.90;99.90;;;;;;5012800;28;19929;-73
2022/01/08 14:07:39;;;;;;;;;;;2.90;99.90;;;;;;5021698;28;19928;-73
2022/01/08 14:10:06;;;;;;;;;;;2.90;99.90;;;;;;5034884;28;20318;-74
2022/01/08 14:12:32;;;;;;;;;;;2.90;99.90;;;;;;5033581;28;19928;-73
2022/01/08 14:15:03;;;;;;;;;;;2.90;99.90;;;;;;5034563;28;19921;-73
2022/01/08 14:17:30;;;;;;;;;;;2.90;99.90;;;;;;5033357;28;19921;-73
2022/01/08 14:20:01;;;;;;;;;;;2.90;99.90;;;;;;5034386;28;20368;-74
2022/01/08 14:22:27;;;;;;;;;;;2.90;99.90;;;;;;5033255;28;19921;-73
2022/01/08 14:24:55;;;;;;;;;;;2.90;99.90;;;;;;5034570;28;20060;-74
2022/01/08 14:27:22;;;;;;;;;;;2.90;99.90;;;;;;5033276;28;19928;-73
2022/01/08 14:30:07;;;;;;;;;;;2.90;99.90;;;;;;5034177;28;19921;-76
2022/01/08 14:32:33;;;;;;;;;;;2.90;99.90;;;;;;5049784;28;19921;-73
2022/01/08 14:35:02;;;;;;;;;;;2.90;99.90;;;;;;5053114;28;19921;-73
2022/01/08 14:37:39;;;;;;;;;;;2.90;99.90;;;;;;5054090;28;20368;-73
2022/01/08 14:40:20;;;;;;;;;;;4.20;99.90;;;;;;5053366;28;19921;-75
2022/01/08 14:42:55;;;;;;;;;;;2.90;99.90;;;;;;5053992;28;19925;-73
2022/01/08 14:45:22;;;;;;;;;;;2.90;99.90;;;;;;5052954;28;19921;-74
2022/01/08 14:47:48;;;;;;;;;;;2.90;99.90;;;;;;5054040;28;19927;-74
2022/01/08 14:50:22;;;;;;;;;;;2.90;99.90;;;;;;5053988;28;20401;-73
2022/01/08 14:52:49;;;;;;;;;;;2.90;99.90;;;;;;5053887;28;19928;-74
2022/01/08 14:55:21;;;;;;;;;;;2.90;99.90;;;;;;5069279;28;19979;-74
2022/01/08 14:57:47;;;;;;;;;;;2.90;99.90;;;;;;5052622;28;20411;-74
2022/01/08 15:00:15;;;;;;;;;;;2.90;99.90;;;;;;5052774;28;19936;-74